Time;durP1;ratioP1;P1;durP2;ratioP2;P2;SDS_P1;SDS_P2;PMS_P1;PMS_P2;Temp;Humidity;BMP_temperature;BMP_pressure;BME280_temperature;BME280_humidity;BME280_pressure;Samples;Min_cycle;Max_cycle;Signal;HPM_P1;HPM_P2
2023/03/25 00:02:22;;;;;;;17.90;11.05;;;;;;;14.93;59.87;99487.16;1774611;80;21410;-62
2023/03/25 00:04:52;;;;;;;15.83;10.68;;;;;;;14.91;59.87;99477.22;1774591;81;21004;-60
2023/03/25 00:07:21;;;;;;;15.68;10.55;;;;;;;14.90;59.81;99476.92;1774463;81;21024;-62
2023/03/25 00:09:52;;;;;;;15.30;10.00;;;;;;;14.90;59.83;99479.68;1774450;79;21005;-62
2023/03/25 00:12:21;;;;;;;19.82;10.90;;;;;;;14.91;59.73;99479.14;1774724;79;21003;-62
2023/03/25 00:14:57;;;;;;;15.50;10.18;;;;;;;14.90;59.71;99476.92;1774561;80;21016;-63
2023/03/25 00:17:27;;;;;;;16.00;10.80;;;;;;;14.89;59.60;99476.63;1774615;81;21044;-62
2023/03/25 00:19:59;;;;;;;16.57;10.23;;;;;;;14.89;59.46;99473.03;1774533;81;21052;-61
2023/03/25 00:22:29;;;;;;;16.35;9.60;;;;;;;14.89;59.27;99466.98;1774459;80;21032;-61
2023/03/25 00:24:58;;;;;;;15.35;10.03;;;;;;;14.90;59.19;99462.30;1774145;81;21020;-60
2023/03/25 00:27:27;;;;;;;17.07;10.18;;;;;;;14.91;58.98;99470.86;1774312;81;21020;-62
2023/03/25 00:29:57;;;;;;;16.97;9.55;;;;;;;14.91;58.70;99463.97;1774377;81;21032;-59
2023/03/25 00:32:28;;;;;;;18.62;10.63;;;;;;;14.92;58.61;99468.41;1774459;79;21047;-61
2023/03/25 00:34:56;;;;;;;17.65;10.75;;;;;;;14.93;58.54;99487.16;1774237;81;20993;-62
2023/03/25 00:37:26;;;;;;;19.95;11.12;;;;;;;14.93;58.75;99482.48;1774598;81;21420;-62
2023/03/25 00:39:55;;;;;;;16.97;10.28;;;;;;;14.90;58.82;99484.36;1774672;81;21052;-62
2023/03/25 00:42:25;;;;;;;17.37;10.60;;;;;;;14.88;58.53;99476.88;1774498;80;21467;-62
2023/03/25 00:44:55;;;;;;;19.80;10.82;;;;;;;14.86;58.53;99477.13;1774455;81;20985;-62
2023/03/25 00:47:23;;;;;;;17.25;10.13;;;;;;;14.86;58.27;99475.75;1778704;80;21047;-62
2023/03/25 00:49:52;;;;;;;17.65;9.98;;;;;;;14.85;57.60;99474.08;1788379;80;21070;-61
2023/03/25 00:52:21;;;;;;;16.48;9.20;;;;;;;14.88;57.33;99472.73;1788307;80;21020;-61
2023/03/25 00:54:51;;;;;;;16.50;9.70;;;;;;;14.89;56.89;99472.49;1788605;79;21155;-62
2023/03/25 00:57:22;;;;;;;15.32;9.35;;;;;;;14.93;57.00;99471.99;1788148;79;21004;-62
2023/03/25 00:59:52;;;;;;;19.32;9.50;;;;;;;14.94;57.15;99470.91;1788152;80;21066;-61
2023/03/25 01:02:23;;;;;;;17.52;9.60;;;;;;;14.94;56.90;99470.91;1788439;80;21043;-61
2023/03/25 01:04:52;;;;;;;14.15;9.23;;;;;;;14.95;56.78;99469.83;1788254;80;21043;-61
2023/03/25 01:07:23;;;;;;;16.65;9.20;;;;;;;14.96;56.91;99475.66;1788018;80;21113;-60
2023/03/25 01:09:53;;;;;;;14.75;9.05;;;;;;;14.95;57.28;99467.06;1788443;80;21012;-59
2023/03/25 01:12:22;;;;;;;16.75;9.48;;;;;;;14.95;57.13;99469.83;1788139;80;21039;-62
2023/03/25 01:14:52;;;;;;;14.90;9.35;;;;;;;14.93;56.76;99470.61;1788350;80;21059;-61
2023/03/25 01:17:20;;;;;;;13.62;8.90;;;;;;;14.90;56.44;99468.65;1788255;80;21004;-61
2023/03/25 01:19:49;;;;;;;14.45;8.45;;;;;;;14.91;56.37;99469.48;1788529;79;21047;-62
2023/03/25 01:22:19;;;;;;;15.32;8.78;;;;;;;14.89;56.17;99466.98;1788151;80;21486;-62
2023/03/25 01:24:48;;;;;;;15.90;8.68;;;;;;;14.87;56.14;99465.02;1788528;80;21047;-61
2023/03/25 01:27:18;;;;;;;13.00;8.60;;;;;;;14.86;56.56;99464.72;1788558;80;21007;-60
2023/03/25 01:29:47;;;;;;;14.93;8.38;;;;;;;14.83;56.41;99479.00;1788483;80;21008;-61
2023/03/25 01:32:16;;;;;;;14.10;8.10;;;;;;;14.81;56.38;99472.06;1788595;80;21043;-62
2023/03/25 01:34:45;;;;;;;17.55;8.95;;;;;;;14.79;56.46;99470.93;1788308;80;21000;-61
2023/03/25 01:37:14;;;;;;;14.58;8.53;;;;;;;14.77;56.41;99465.37;1788500;79;21039;-61
2023/03/25 01:39:44;;;;;;;13.38;8.03;;;;;;;14.75;56.26;99472.51;1788462;79;21051;-61
2023/03/25 01:42:14;;;;;;;12.33;7.92;;;;;;;14.74;56.37;99470.00;1788292;80;21035;-62
2023/03/25 01:44:51;;;;;;;14.07;8.68;;;;;;;14.72;56.16;99468.87;1788407;80;21097;-61
2023/03/25 01:47:21;;;;;;;17.10;8.63;;;;;;;14.70;56.10;99471.04;1788185;80;21039;-62
2023/03/25 01:49:53;;;;;;;13.93;8.20;;;;;;;14.69;56.14;99477.64;1788201;80;21465;-61
2023/03/25 01:52:24;;;;;;;11.55;8.08;;;;;;;14.69;56.00;99470.74;1788253;80;21435;-61
2023/03/25 01:54:53;;;;;;;13.78;8.38;;;;;;;14.68;56.09;99475.97;1788544;80;21079;-62
2023/03/25 01:57:22;;;;;;;12.43;8.30;;;;;;;14.67;56.25;99469.31;1770806;80;21055;-62
2023/03/25 01:59:52;;;;;;;14.30;8.65;;;;;;;14.66;55.96;99468.48;1788220;80;21004;-61
2023/03/25 02:02:23;;;;;;;13.43;8.35;;;;;;;14.65;55.89;99468.19;1788226;80;21011;-62
2023/03/25 02:05:00;;;;;;;13.48;8.43;;;;;;;14.63;55.81;99466.22;1788338;80;21047;-62
2023/03/25 02:07:32;;;;;;;15.10;8.75;;;;;;;14.62;55.83;99464.55;1788077;80;21075;-62
2023/03/25 02:10:06;;;;;;;15.98;9.25;;;;;;;14.60;56.09;99461.20;1788431;80;21431;-61
2023/03/25 02:12:35;;;;;;;14.03;8.53;;;;;;;14.57;56.20;99457.55;1788643;80;21025;-61
2023/03/25 02:15:07;;;;;;;17.67;9.28;;;;;;;14.56;55.91;99457.27;1788129;79;21083;-61
2023/03/25 02:17:58;;;;;;;13.50;8.35;;;;;;;14.52;55.86;99458.30;1770966;80;21388;-60
2023/03/25 02:21:18;;;;;;;14.53;8.70;;;;;;;14.49;55.81;99455.20;1788473;80;20972;-61
2023/03/25 02:23:58;;;;;;;13.68;8.50;;;;;;;14.46;55.89;99461.20;1788273;80;21428;-60
2023/03/25 02:26:58;;;;;;;16.05;8.68;;;;;;;14.42;56.22;99449.83;1788148;80;21425;-61
2023/03/25 02:29:57;;;;;;;15.13;8.98;;;;;;;14.40;56.06;99452.51;1788316;79;21090;-61
2023/03/25 02:33:04;;;;;;;16.82;8.78;;;;;;;14.39;55.96;99443.41;1788209;80;21090;-60
2023/03/25 02:36:08;;;;;;;15.55;9.25;;;;;;;14.36;55.76;99438.92;1744800;79;21499;-61
2023/03/25 02:39:11;;;;;;;16.40;8.68;;;;;;;14.35;55.89;99440.01;1788622;80;21039;-62
2023/03/25 02:41:59;;;;;;;13.28;8.60;;;;;;;14.34;55.96;99439.71;1788235;80;21023;-61
2023/03/25 02:44:46;;;;;;;16.40;9.45;;;;;;;14.33;55.64;99436.66;1790137;80;21039;-61
2023/03/25 02:47:17;;;;;;;15.05;9.20;;;;;;;14.30;55.96;99442.09;1791413;80;20996;-62
2023/03/25 02:49:52;;;;;;;16.12;9.38;;;;;;;14.28;55.77;99442.88;1791224;79;21011;-62
2023/03/25 02:52:28;;;;;;;16.93;9.70;;;;;;;14.26;55.75;99454.69;1790888;79;21067;-62
2023/03/25 02:55:03;;;;;;;12.98;8.65;;;;;;;14.24;55.78;99452.72;1790277;80;21051;-61
2023/03/25 02:57:33;;;;;;;13.65;9.15;;;;;;;14.21;55.66;99445.78;1788615;80;21012;-61
2023/03/25 03:00:14;;;;;;;14.15;8.98;;;;;;;14.19;55.34;99445.19;1788569;80;21031;-62
2023/03/25 03:02:58;;;;;;;12.95;9.10;;;;;;;14.19;55.21;99443.80;1788577;79;21047;-61
2023/03/25 03:05:29;;;;;;;12.63;8.95;;;;;;;14.17;55.13;99447.34;1770253;80;21032;-62
2023/03/25 03:08:32;;;;;;;16.60;9.83;;;;;;;14.16;55.12;99445.67;1788205;80;20984;-63
2023/03/25 03:11:31;;;;;;;14.10;9.03;;;;;;;14.16;55.06;99442.92;1782949;80;21484;-61
2023/03/25 03:14:45;;;;;;;18.45;10.00;;;;;;;14.15;54.62;99435.73;1788305;80;21016;-61
2023/03/25 03:17:30;;;;;;;16.25;9.65;;;;;;;14.12;54.59;99437.60;1788401;80;21493;-62
2023/03/25 03:20:36;;;;;;;17.00;10.20;;;;;;;14.10;54.70;99442.52;1788631;80;21051;-61
2023/03/25 03:23:27;;;;;;;14.18;9.40;;;;;;;14.10;54.80;99440.30;1788309;80;21047;-62
2023/03/25 03:26:20;;;;;;;16.00;10.32;;;;;;;14.08;55.26;99439.17;1788330;80;21015;-61
2023/03/25 03:29:01;;;;;;;17.62;9.48;;;;;;;14.07;55.84;99438.04;1788535;80;21031;-62
2023/03/25 03:31:49;;;;;;;16.50;9.50;;;;;;;14.03;56.37;99444.58;1736253;82;21471;-60
2023/03/25 03:34:26;;;;;;;;;;;;;;;14.00;56.68;99439.55;1661127;86;21064;-61
2023/03/25 03:36:55;;;;;;;20.43;10.63;;;;;;;13.95;56.96;99440.83;1688735;85;20496;-61
2023/03/25 03:39:35;;;;;;;16.60;10.30;;;;;;;13.91;57.56;99430.00;1736421;82;21011;-62
2023/03/25 03:42:09;;;;;;;17.75;10.30;;;;;;;13.88;57.55;99424.98;1736492;82;21051;-62
2023/03/25 03:44:39;;;;;;;15.05;9.80;;;;;;;13.83;57.53;99424.87;1729142;82;21047;-61
2023/03/25 03:47:12;;;;;;;16.05;10.32;;;;;;;13.79;57.72;99427.81;1736689;82;21109;-61
2023/03/25 03:49:46;;;;;;;17.42;10.00;;;;;;;13.77;58.05;99423.09;1729683;82;21483;-61
2023/03/25 03:52:24;;;;;;;21.65;11.08;;;;;;;13.74;58.13;99423.03;1654068;87;21036;-61
2023/03/25 03:55:20;;;;;;;16.17;10.43;;;;;;;13.72;58.49;99427.95;1728728;83;21059;-62
2023/03/25 03:57:56;;;;;;;16.10;10.15;;;;;;;13.72;57.86;99418.85;1715987;83;21467;-61
2023/03/25 04:00:33;;;;;;;16.73;11.12;;;;;;;13.70;57.98;99422.38;1782840;80;21016;-61
2023/03/25 04:03:16;;;;;;;16.57;10.82;;;;;;;13.69;57.94;99431.72;1782653;80;21055;-61
2023/03/25 04:05:51;;;;;;;17.92;10.88;;;;;;;13.67;58.35;99418.73;1783043;80;21456;-62
2023/03/25 04:08:27;;;;;;;18.42;10.50;;;;;;;13.63;57.80;99425.23;1783013;80;21056;-61
2023/03/25 04:11:03;;;;;;;17.67;10.93;;;;;;;13.61;57.59;99427.39;1782778;80;21404;-60
2023/03/25 04:13:35;;;;;;;17.70;11.25;;;;;;;13.60;58.15;99421.05;1782670;80;21031;-62
2023/03/25 04:16:05;;;;;;;20.90;11.57;;;;;;;13.60;58.36;99428.47;1782883;80;21048;-62
2023/03/25 04:18:34;;;;;;;17.98;11.35;;;;;;;13.59;58.08;99431.76;1763450;80;21059;-61
2023/03/25 04:21:05;;;;;;;18.23;11.93;;;;;;;13.58;58.05;99429.25;1783086;80;21119;-61
2023/03/25 04:23:36;;;;;;;22.13;11.95;;;;;;;13.56;57.98;99425.36;1782723;80;21044;-61
2023/03/25 04:26:06;;;;;;;20.97;12.03;;;;;;;13.56;58.11;99426.73;1782853;80;21031;-62
2023/03/25 04:28:36;;;;;;;22.77;12.30;;;;;;;13.56;58.13;99425.91;1782991;80;21420;-62
2023/03/25 04:31:14;;;;;;;19.48;11.78;;;;;;;13.56;57.67;99423.98;1782764;80;21105;-62
2023/03/25 04:33:47;;;;;;;17.70;11.63;;;;;;;13.55;57.58;99425.60;1764742;80;21067;-61
2023/03/25 04:36:16;;;;;;;21.23;13.05;;;;;;;13.55;57.95;99430.57;1782783;80;21477;-62
2023/03/25 04:38:44;;;;;;;21.23;12.63;;;;;;;13.54;58.02;99430.27;1782709;80;21070;-62
2023/03/25 04:41:14;;;;;;;17.80;11.15;;;;;;;13.55;57.75;99425.60;1783054;80;21055;-62
2023/03/25 04:43:44;;;;;;;17.87;11.33;;;;;;;13.54;57.58;99421.17;1783033;80;21027;-62
2023/03/25 04:46:14;;;;;;;18.95;11.43;;;;;;;13.54;57.60;99427.52;1782623;79;20980;-62
2023/03/25 04:48:46;;;;;;;17.48;11.05;;;;;;;13.52;57.80;99422.80;1779525;80;21083;-62
2023/03/25 04:51:16;;;;;;;20.37;11.95;;;;;;;13.52;57.51;99417.29;1774325;79;21459;-62
2023/03/25 04:53:46;;;;;;;19.20;11.45;;;;;;;13.50;58.03;99419.45;1774590;80;21417;-62
2023/03/25 04:56:18;;;;;;;16.48;10.90;;;;;;;13.48;57.62;99415.27;1774495;81;21515;-62
2023/03/25 04:58:47;;;;;;;19.57;11.60;;;;;;;13.48;58.12;99416.09;1774433;81;20972;-61
2023/03/25 05:01:29;;;;;;;16.55;11.08;;;;;;;13.48;58.20;99407.84;1774378;81;21434;-62
2023/03/25 05:04:05;;;;;;;19.25;11.12;;;;;;;13.48;58.31;99396.83;1774866;81;21072;-62
2023/03/25 05:06:40;;;;;;;21.33;11.03;;;;;;;13.49;57.55;99393.55;1774964;81;21458;-61
2023/03/25 05:09:14;;;;;;;19.77;10.88;;;;;;;13.50;57.70;99396.05;1774526;81;21079;-62
2023/03/25 05:11:43;;;;;;;18.27;11.70;;;;;;;13.54;57.71;99390.91;1774559;80;20996;-62
2023/03/25 05:14:15;;;;;;;20.32;11.30;;;;;;;13.54;57.42;99386.78;1774422;81;20980;-62
2023/03/25 05:16:45;;;;;;;18.55;10.98;;;;;;;13.56;57.32;99394.25;1774442;81;21457;-63
2023/03/25 05:19:14;;;;;;;17.27;10.88;;;;;;;13.59;57.37;99397.89;1774281;79;21000;-61
2023/03/25 05:21:43;;;;;;;19.50;11.55;;;;;;;13.59;57.19;99382.22;1774453;81;21059;-62
2023/03/25 05:24:12;;;;;;;17.25;10.98;;;;;;;13.60;57.01;99396.28;1774553;80;21001;-62
2023/03/25 05:26:41;;;;;;;18.85;10.85;;;;;;;13.62;57.12;99389.16;1774440;81;21048;-61
2023/03/25 05:29:13;;;;;;;20.37;11.22;;;;;;;13.63;57.03;99386.16;1774819;80;21016;-62
2023/03/25 05:31:44;;;;;;;18.23;10.60;;;;;;;13.63;57.13;99387.53;1774674;81;21023;-62
2023/03/25 05:34:15;;;;;;;21.07;11.18;;;;;;;13.65;57.08;99384.55;1774493;80;21024;-62
2023/03/25 05:36:46;;;;;;;17.62;10.78;;;;;;;13.66;57.02;99386.78;1774500;81;21061;-61
2023/03/25 05:39:16;;;;;;;17.67;11.53;;;;;;;13.66;56.96;99386.25;1774563;81;21048;-61
2023/03/25 05:41:45;;;;;;;18.10;10.20;;;;;;;13.68;56.99;99386.00;1774664;81;21459;-60
2023/03/25 05:44:17;;;;;;;28.80;11.45;;;;;;;13.69;56.90;99380.80;1774579;81;21052;-62
2023/03/25 05:46:47;;;;;;;18.27;11.55;;;;;;;13.69;56.91;99377.50;1774486;80;21427;-61
2023/03/25 05:49:16;;;;;;;17.60;11.05;;;;;;;13.70;56.96;99371.45;1780704;80;21004;-61
2023/03/25 05:51:48;;;;;;;17.75;10.40;;;;;;;13.69;56.78;99372.53;1788043;80;21055;-64
2023/03/25 05:54:19;;;;;;;17.35;10.50;;;;;;;13.71;56.90;99373.97;1788377;80;21011;-62
2023/03/25 05:56:47;;;;;;;25.10;11.48;;;;;;;13.71;56.80;99373.12;1788328;80;21090;-62
2023/03/25 05:59:16;;;;;;;16.62;10.68;;;;;;;13.71;56.74;99373.12;1788656;80;21039;-62
2023/03/25 06:01:45;;;;;;;18.05;10.65;;;;;;;13.72;56.66;99370.67;1788358;80;21031;-62
2023/03/25 06:04:15;;;;;;;17.12;9.90;;;;;;;13.73;56.89;99373.72;1788256;80;21123;-62
2023/03/25 06:06:44;;;;;;;17.37;10.58;;;;;;;13.73;56.89;99362.17;1788462;80;21047;-63
2023/03/25 06:09:13;;;;;;;18.23;10.45;;;;;;;13.74;57.17;99358.34;1788475;80;21008;-61
2023/03/25 06:11:42;;;;;;;17.42;10.95;;;;;;;13.77;57.27;99352.88;1787984;80;21736;-60
2023/03/25 06:14:12;;;;;;;17.15;10.63;;;;;;;13.79;57.22;99350.72;1788221;80;21016;-60
2023/03/25 06:16:43;;;;;;;20.43;10.58;;;;;;;13.79;56.87;99352.94;1788292;80;21008;-61
2023/03/25 06:19:17;;;;;;;19.52;10.78;;;;;;;13.81;56.70;99359.03;1788694;80;21000;-62
2023/03/25 06:21:48;;;;;;;19.70;10.68;;;;;;;13.80;56.65;99363.41;1788336;80;21000;-62
2023/03/25 06:24:21;;;;;;;16.75;10.00;;;;;;;13.80;56.62;99364.24;1788298;80;21401;-60
2023/03/25 06:26:50;;;;;;;20.55;11.35;;;;;;;13.78;56.57;99362.81;1788286;80;21027;-61
2023/03/25 06:29:19;;;;;;;20.92;11.95;;;;;;;13.75;56.61;99361.39;1788278;80;21043;-62
2023/03/25 06:31:48;;;;;;;22.90;11.08;;;;;;;13.74;56.79;99350.63;1790090;80;21016;-63
2023/03/25 06:34:17;;;;;;;21.70;11.00;;;;;;;13.72;56.72;99352.23;1791417;80;21020;-62
2023/03/25 06:36:48;;;;;;;19.55;10.85;;;;;;;13.72;56.80;99348.65;1791427;80;21039;-64
2023/03/25 06:39:18;;;;;;;19.55;10.98;;;;;;;13.71;56.79;99343.69;1791440;80;21032;-63
2023/03/25 06:41:48;;;;;;;19.17;10.75;;;;;;;13.70;56.56;99347.52;1790496;80;21024;-61
2023/03/25 06:44:21;;;;;;;19.45;11.43;;;;;;;13.69;56.67;99343.09;1788463;80;21051;-63
2023/03/25 06:47:05;;;;;;;19.52;10.90;;;;;;;13.68;56.71;99337.83;1756851;80;21487;-63
2023/03/25 06:49:42;;;;;;;15.80;10.20;;;;;;;13.68;56.67;99332.33;1788089;80;21094;-62
2023/03/25 06:52:12;;;;;;;17.30;11.30;;;;;;;13.67;56.83;99339.75;1788442;80;21039;-62
2023/03/25 06:54:42;;;;;;;19.00;10.70;;;;;;;13.68;56.96;99351.59;1788102;80;21074;-61
2023/03/25 06:57:13;;;;;;;17.87;10.68;;;;;;;13.69;56.96;99345.84;1788422;80;21059;-62
2023/03/25 06:59:46;;;;;;;19.67;11.22;;;;;;;13.70;56.80;99342.55;1788173;80;21004;-62
2023/03/25 07:02:15;;;;;;;19.30;10.93;;;;;;;13.70;56.81;99339.27;1788154;79;21051;-63
2023/03/25 07:04:43;;;;;;;22.62;11.73;;;;;;;13.72;56.66;99339.85;1788192;80;21423;-62
2023/03/25 07:07:14;;;;;;;34.33;10.98;;;;;;;13.75;56.49;99337.16;1788360;80;21020;-62
2023/03/25 07:09:43;;;;;;;16.30;10.98;;;;;;;13.78;56.22;99335.28;1788354;80;21427;-63
2023/03/25 07:12:12;;;;;;;21.97;10.70;;;;;;;13.82;56.14;99333.72;1788360;79;21012;-62
2023/03/25 07:14:43;;;;;;;17.37;10.70;;;;;;;13.84;56.01;99337.89;1707126;84;21039;-61
2023/03/25 07:17:12;;;;;;;18.52;10.25;;;;;;;13.88;55.72;99325.85;1706979;84;21055;-62
2023/03/25 07:19:42;;;;;;;23.38;11.25;;;;;;;13.93;55.71;99327.33;1651305;86;21055;-63
2023/03/25 07:22:13;;;;;;;17.85;11.45;;;;;;;13.98;55.59;99330.17;1651274;87;21109;-61
2023/03/25 07:24:42;;;;;;;16.67;10.10;;;;;;;14.05;55.49;99333.62;1651382;87;21087;-63
2023/03/25 07:27:11;;;;;;;17.32;11.10;;;;;;;14.13;55.28;99326.88;1651370;87;21486;-62
2023/03/25 07:29:41;;;;;;;19.07;10.55;;;;;;;14.19;55.21;99325.34;1651288;86;21568;-60
2023/03/25 07:32:09;;;;;;;18.00;11.12;;;;;;;14.29;55.01;99324.16;1651302;87;21050;-61
2023/03/25 07:34:41;;;;;;;19.23;11.40;;;;;;;14.40;54.92;99322.98;1651239;87;21499;-62
2023/03/25 07:37:10;;;;;;;26.27;12.33;;;;;;;14.50;54.59;99319.05;1663016;84;21091;-61
2023/03/25 07:39:40;;;;;;;20.27;11.50;;;;;;;14.60;54.28;99317.84;1758707;80;21000;-62
2023/03/25 07:42:09;;;;;;;18.77;11.20;;;;;;;14.68;54.14;99313.30;1788179;79;21436;-62
2023/03/25 07:44:56;;;;;;;21.93;11.50;;;;;;;14.74;54.04;99312.28;1788315;80;21054;-62
2023/03/25 07:47:26;;;;;;;19.10;11.85;;;;;;;14.82;53.81;99311.86;1788245;79;21479;-61
2023/03/25 07:49:55;;;;;;;19.77;10.88;;;;;;;14.87;53.58;99306.42;1788016;80;21051;-63
2023/03/25 07:52:23;;;;;;;33.25;12.28;;;;;;;14.93;53.57;99307.88;1788271;80;21047;-62
2023/03/25 07:54:52;;;;;;;23.00;12.10;;;;;;;14.98;53.56;99298.34;1788343;80;21000;-62
2023/03/25 07:57:21;;;;;;;19.80;12.50;;;;;;;15.03;53.29;99290.13;1788406;79;20984;-62
2023/03/25 07:59:52;;;;;;;20.70;12.15;;;;;;;15.07;53.29;99295.44;1788288;80;21008;-63
2023/03/25 08:02:21;;;;;;;20.37;12.35;;;;;;;15.10;53.00;99294.92;1788163;80;21028;-62
2023/03/25 08:04:53;;;;;;;19.35;11.50;;;;;;;15.11;52.96;99295.22;1788189;80;21079;-61
2023/03/25 08:07:22;;;;;;;24.87;12.55;;;;;;;15.10;52.97;99291.63;1788301;79;20973;-63
2023/03/25 08:09:51;;;;;;;18.73;11.63;;;;;;;15.13;53.05;99292.49;1788280;80;21059;-63
2023/03/25 08:12:22;;;;;;;19.52;11.22;;;;;;;15.14;52.99;99294.16;1788510;79;21015;-63
2023/03/25 08:14:52;;;;;;;20.45;11.45;;;;;;;15.18;52.95;99283.45;1788307;79;21426;-64
2023/03/25 08:17:22;;;;;;;25.20;11.93;;;;;;;15.20;52.84;99275.75;1788253;79;21023;-63
2023/03/25 08:19:51;;;;;;;19.40;11.95;;;;;;;15.22;52.91;99273.57;1771289;80;21452;-62
2023/03/25 08:22:19;;;;;;;24.10;12.18;;;;;;;15.30;52.89;99265.39;1788383;79;21078;-62
2023/03/25 08:24:50;;;;;;;21.95;12.20;;;;;;;15.37;52.52;99268.25;1788254;80;21481;-62
2023/03/25 08:27:19;;;;;;;25.77;11.95;;;;;;;15.43;52.42;99265.01;1788296;80;21038;-61
2023/03/25 08:29:56;;;;;;;19.05;11.60;;;;;;;15.49;52.29;99262.59;1788216;80;21408;-61
2023/03/25 08:32:20;;;;;;;19.62;12.98;;;;;;;15.56;52.26;99260.47;1788043;80;21436;-62
2023/03/25 08:34:50;;;;;;;19.98;12.28;;;;;;;15.64;52.08;99246.27;1788328;80;21000;-62
2023/03/25 08:37:21;;;;;;;22.07;13.05;;;;;;;15.69;52.01;99244.11;1736485;82;21028;-62
2023/03/25 08:39:50;;;;;;;26.07;13.45;;;;;;;15.72;51.90;99232.55;1736442;82;21027;-63
2023/03/25 08:42:20;;;;;;;19.70;12.88;;;;;;;15.73;51.91;99245.27;1736437;82;21492;-63
2023/03/25 08:44:49;;;;;;;17.77;11.97;;;;;;;15.72;52.04;99240.84;1736691;82;21083;-62
2023/03/25 08:47:21;;;;;;;22.05;12.90;;;;;;;15.74;52.00;99245.00;1736595;82;21071;-62
2023/03/25 08:49:51;;;;;;;23.00;12.68;;;;;;;15.78;51.99;99246.70;1704603;84;21044;-61
2023/03/25 08:52:21;;;;;;;21.17;12.30;;;;;;;15.81;51.84;99242.04;1699673;84;21071;-64
2023/03/25 08:54:50;;;;;;;27.80;13.85;;;;;;;15.84;51.86;99248.42;1712873;81;21029;-63
2023/03/25 08:57:20;;;;;;;24.67;11.93;;;;;;;15.86;51.88;99244.85;1754027;81;21083;-62
2023/03/25 08:59:50;;;;;;;26.87;13.15;;;;;;;15.89;51.76;99243.50;1737678;81;21040;-63
2023/03/25 09:02:19;;;;;;;56.92;16.15;;;;;;;15.90;51.78;99248.77;1746052;82;21069;-62
2023/03/25 09:04:49;;;;;;;25.10;13.45;;;;;;;15.91;52.07;99247.66;1728391;82;21107;-62
2023/03/25 09:07:22;;;;;;;23.20;13.45;;;;;;;15.94;51.96;99244.93;1747586;80;21442;-61
2023/03/25 09:09:49;;;;;;;24.25;13.13;;;;;;;15.92;51.89;99242.43;1784548;80;21087;-64
2023/03/25 09:12:19;;;;;;;23.20;13.20;;;;;;;15.89;51.78;99244.88;1780811;80;21061;-62
2023/03/25 09:14:48;;;;;;;21.02;12.90;;;;;;;15.87;51.94;99247.90;1714463;83;21400;-62
2023/03/25 09:17:17;;;;;;;22.80;14.18;;;;;;;15.84;52.00;99253.40;1782495;79;21020;-62
2023/03/25 09:19:46;;;;;;;31.35;13.40;;;;;;;15.82;52.38;99247.30;1782474;80;20996;-64
2023/03/25 09:22:15;;;;;;;24.02;13.58;;;;;;;15.80;52.34;99238.44;1782443;80;21067;-61
2023/03/25 09:24:45;;;;;;;19.73;12.73;;;;;;;15.84;52.22;99240.13;1782537;80;21012;-63
2023/03/25 09:27:14;;;;;;;19.82;12.85;;;;;;;15.85;52.15;99242.64;1782674;80;20972;-64
2023/03/25 09:29:43;;;;;;;21.55;12.80;;;;;;;15.86;52.15;99249.00;1782628;80;21027;-65
2023/03/25 09:32:13;;;;;;;23.62;14.15;;;;;;;15.88;52.16;99239.06;1724855;82;21040;-63
2023/03/25 09:34:42;;;;;;;25.57;13.25;;;;;;;15.90;52.32;99230.80;1714100;84;21051;-63
2023/03/25 09:37:11;;;;;;;19.15;13.10;;;;;;;15.94;52.34;99220.06;1714097;84;21035;-63
2023/03/25 09:39:41;;;;;;;27.22;13.70;;;;;;;15.99;52.33;99219.56;1714481;84;21071;-63
2023/03/25 09:42:27;;;;;;;17.82;12.80;;;;;;;16.05;51.90;99210.78;1714333;84;21039;-64
2023/03/25 09:45:18;;;;;;;35.20;13.72;;;;;;;16.07;51.60;99214.11;1714095;84;21067;-63
2023/03/25 09:48:22;;;;;;;20.30;12.98;;;;;;;16.08;51.59;99204.17;1714268;84;21075;-62
2023/03/25 09:50:51;;;;;;;22.95;13.15;;;;;;;16.08;51.67;99211.63;1754671;80;21084;-63
2023/03/25 09:53:28;;;;;;;22.25;12.95;;;;;;;16.07;51.87;99235.67;1706591;84;21436;-63
2023/03/25 09:55:56;;;;;;;21.77;13.05;;;;;;;16.06;51.69;99227.09;1772984;81;21496;-63
2023/03/25 09:58:46;;;;;;;21.25;12.75;;;;;;;16.03;51.80;99209.66;1772871;81;21460;-62
2023/03/25 10:01:35;;;;;;;21.35;13.95;;;;;;;16.01;51.90;99203.56;1706490;84;21103;-61
2023/03/25 10:04:24;;;;;;;21.40;13.25;;;;;;;16.00;52.02;99206.03;1772969;81;20984;-63
2023/03/25 10:07:32;;;;;;;23.77;13.32;;;;;;;15.98;52.17;99200.48;1754395;80;21505;-64
2023/03/25 10:10:15;;;;;;;21.03;13.83;;;;;;;15.96;52.30;99191.63;1773351;81;21028;-63
2023/03/25 10:13:13;;;;;;;26.85;14.13;;;;;;;15.94;52.55;99172.55;1774963;81;21055;-64
2023/03/25 10:16:14;;;;;;;23.38;13.50;;;;;;;15.90;52.75;99174.17;1773683;81;20996;-62
2023/03/25 10:19:25;;;;;;;25.37;14.00;;;;;;;15.90;52.87;99194.89;1657549;87;21024;-64
2023/03/25 10:22:06;;;;;;;22.05;13.62;;;;;;;15.90;53.10;99192.68;1717904;83;21087;-64
2023/03/25 10:24:48;;;;;;;20.90;13.40;;;;;;;15.90;53.28;99186.61;1693160;83;21185;-63
2023/03/25 10:27:40;;;;;;;21.37;13.25;;;;;;;15.88;53.64;99177.75;1716542;83;21078;-64
2023/03/25 10:30:29;;;;;;;24.23;14.45;;;;;;;15.89;53.54;99175.27;1716324;83;21067;-64
2023/03/25 10:33:03;;;;;;;24.98;14.05;;;;;;;15.89;53.61;99165.61;1716392;83;21075;-62
2023/03/25 10:35:39;;;;;;;23.67;14.40;;;;;;;15.92;53.67;99176.13;1716361;83;21040;-64
2023/03/25 10:38:23;;;;;;;23.75;14.78;;;;;;;15.94;53.62;99165.65;1716344;83;21066;-65
2023/03/25 10:41:26;;;;;;;22.85;14.18;;;;;;;15.95;53.73;99167.86;1716267;83;21039;-64
2023/03/25 10:43:55;;;;;;;20.70;13.40;;;;;;;15.96;53.83;99170.91;1757075;81;21052;-64
2023/03/25 10:46:47;;;;;;;23.55;13.88;;;;;;;15.98;54.03;99167.34;1706326;84;21083;-62
2023/03/25 10:49:20;;;;;;;22.55;13.90;;;;;;;16.01;53.90;99169.02;1772352;81;21055;-64
2023/03/25 10:51:53;;;;;;;21.27;13.25;;;;;;;16.01;53.92;99160.73;1713204;84;21099;-63
2023/03/25 10:54:30;;;;;;;22.13;13.80;;;;;;;16.02;53.91;99151.35;1780914;80;21047;-63
2023/03/25 10:57:06;;;;;;;23.02;13.90;;;;;;;16.04;53.86;99154.69;1780845;80;21067;-63
2023/03/25 10:59:44;;;;;;;24.50;14.73;;;;;;;16.04;53.85;99148.33;1780803;80;21467;-63
2023/03/25 11:02:21;;;;;;;21.20;13.93;;;;;;;16.02;53.89;99145.83;1780628;80;20984;-62
2023/03/25 11:04:54;;;;;;;21.12;13.65;;;;;;;16.01;53.95;99137.25;1780819;80;21004;-63
2023/03/25 11:07:34;;;;;;;23.20;13.55;;;;;;;16.03;53.93;99140.59;1761399;80;21056;-62
2023/03/25 11:10:28;;;;;;;23.77;13.85;;;;;;;16.06;53.79;99135.91;1751765;82;21461;-64
2023/03/25 11:13:02;;;;;;;22.48;13.85;;;;;;;16.11;53.59;99132.35;1751496;82;21021;-61
2023/03/25 11:15:37;;;;;;;21.45;13.28;;;;;;;16.16;53.63;99134.61;1751407;81;21077;-61
2023/03/25 11:18:30;;;;;;;23.12;13.70;;;;;;;16.24;53.39;99131.06;1751560;80;22036;-62
2023/03/25 11:21:07;;;;;;;20.70;13.10;;;;;;;16.33;53.15;99114.30;1733109;81;21080;-63
2023/03/25 11:23:48;;;;;;;19.98;14.10;;;;;;;16.40;52.97;99115.73;1733124;82;21037;-61
2023/03/25 11:26:32;;;;;;;22.90;14.78;;;;;;;16.49;52.70;99109.14;1751581;82;21511;-63
2023/03/25 11:29:16;;;;;;;18.30;12.85;;;;;;;16.55;52.40;99109.45;1732642;82;20997;-62
2023/03/25 11:31:48;;;;;;;20.60;13.80;;;;;;;16.66;52.03;99114.52;1749336;81;21057;-61
2023/03/25 11:34:22;;;;;;;19.77;13.30;;;;;;;16.73;51.89;99115.94;1732551;82;21025;-62
2023/03/25 11:36:56;;;;;;;20.97;13.80;;;;;;;16.79;51.71;99116.23;1732628;81;21049;-62
2023/03/25 11:39:38;;;;;;;20.05;13.75;;;;;;;16.86;51.53;99106.86;1726951;80;21519;-61
2023/03/25 11:42:27;;;;;;;24.63;14.73;;;;;;;16.92;51.20;99114.11;1676440;84;21072;-64
2023/03/25 11:44:58;;;;;;;24.50;14.53;;;;;;;16.91;50.97;99127.11;1699299;84;21078;-63
2023/03/25 11:47:33;;;;;;;25.70;14.45;;;;;;;16.91;51.13;99120.20;1699320;84;21015;-63
2023/03/25 11:50:04;;;;;;;19.12;12.33;;;;;;;16.91;51.08;99120.75;1699850;83;21026;-63
2023/03/25 11:52:46;;;;;;;24.70;16.10;;;;;;;16.90;51.51;99124.59;1706925;84;21129;-63
2023/03/25 11:55:19;;;;;;;22.37;15.30;;;;;;;16.91;50.93;99116.05;1706901;82;21101;-61